Time;durP1;ratioP1;P1;durP2;ratioP2;P2;SDS_P1;SDS_P2;PMS_P1;PMS_P2;Temp;Humidity;BMP_temperature;BMP_pressure;BME280_temperature;BME280_humidity;BME280_pressure;Samples;Min_cycle;Max_cycle;Signal;HPM_P1;HPM_P2
2021/10/10 00:01:38;;;;;;;60.43;33.40;;;6.70;99.90;;;;;;5032291;28;20202;-67
2021/10/10 00:04:06;;;;;;;59.80;33.33;;;6.70;99.90;;;;;;5023309;28;20518;-68
2021/10/10 00:06:37;;;;;;;73.00;36.67;;;6.60;99.90;;;;;;5027327;28;20193;-67
2021/10/10 00:09:05;;;;;;;70.23;36.50;;;6.60;99.90;;;;;;5030144;28;20193;-68
2021/10/10 00:11:34;;;;;;;64.63;35.27;;;6.60;99.90;;;;;;5057878;28;20197;-68
2021/10/10 00:14:03;;;;;;;71.53;35.77;;;6.70;99.90;;;;;;5030100;28;20603;-68
2021/10/10 00:16:31;;;;;;;71.40;35.07;;;6.60;99.90;;;;;;5030059;28;20217;-67
2021/10/10 00:19:01;;;;;;;66.23;32.90;;;6.60;99.90;;;;;;5062200;28;20373;-68
2021/10/10 00:21:30;;;;;;;67.47;34.73;;;6.60;99.90;;;;;;5030858;28;20194;-68
2021/10/10 00:23:59;;;;;;;66.57;34.77;;;6.60;99.90;;;;;;5033610;28;20201;-68
2021/10/10 00:26:28;;;;;;;72.37;36.93;;;6.50;99.90;;;;;;5028431;28;20705;-67
2021/10/10 00:28:56;;;;;;;79.13;39.90;;;6.50;99.90;;;;;;5034001;28;20771;-67
2021/10/10 00:31:25;;;;;;;70.47;36.83;;;6.50;99.90;;;;;;5028374;28;20208;-67
2021/10/10 00:33:53;;;;;;;75.93;37.70;;;6.50;99.90;;;;;;5060953;28;20648;-67
2021/10/10 00:36:24;;;;;;;72.53;36.13;;;6.50;99.90;;;;;;5032927;28;20221;-68
2021/10/10 00:38:52;;;;;;;76.57;37.53;;;6.40;99.90;;;;;;5060469;28;20427;-67
2021/10/10 00:41:22;;;;;;;80.87;37.90;;;6.40;99.90;;;;;;5030371;28;20193;-68
2021/10/10 00:43:51;;;;;;;86.23;39.13;;;6.40;99.90;;;;;;5028724;28;20193;-67
2021/10/10 00:46:19;;;;;;;78.67;37.03;;;6.40;99.90;;;;;;5030241;28;20213;-68
2021/10/10 00:48:48;;;;;;;78.93;37.53;;;6.40;99.90;;;;;;5027766;28;20221;-67
2021/10/10 00:51:16;;;;;;;81.83;37.73;;;6.40;99.90;;;;;;5024215;28;20194;-67
2021/10/10 00:53:45;;;;;;;82.10;37.43;;;6.40;99.90;;;;;;5024617;28;20221;-67
2021/10/10 00:56:16;;;;;;;82.70;37.03;;;6.40;99.90;;;;;;5022961;28;20264;-68
2021/10/10 00:58:47;;;;;;;71.43;35.37;;;6.30;99.90;;;;;;5027492;28;20193;-67
2021/10/10 01:01:16;;;;;;;75.50;37.07;;;6.20;99.90;;;;;;5024871;28;20233;-68
2021/10/10 01:03:45;;;;;;;70.83;33.70;;;6.20;99.90;;;;;;5028854;28;20619;-67
2021/10/10 01:06:17;;;;;;;68.03;34.57;;;6.20;99.90;;;;;;5030633;28;20259;-68
2021/10/10 01:08:45;;;;;;;62.87;33.53;;;6.10;99.90;;;;;;5059716;28;20243;-68
2021/10/10 01:11:15;;;;;;;66.07;33.83;;;6.00;99.90;;;;;;5030859;28;20337;-68
2021/10/10 01:13:45;;;;;;;72.27;35.13;;;6.00;99.90;;;;;;5029849;28;20255;-67
2021/10/10 01:16:16;;;;;;;72.77;35.33;;;6.00;99.90;;;;;;5028065;28;21883;-67
2021/10/10 01:18:45;;;;;;;65.97;33.83;;;5.90;99.90;;;;;;5027552;28;20575;-67
2021/10/10 01:21:14;;;;;;;73.70;36.17;;;6.00;99.90;;;;;;5020820;28;20194;-67
2021/10/10 01:23:43;;;;;;;65.50;33.10;;;6.00;99.90;;;;;;5020232;28;20278;-67
2021/10/10 01:26:11;;;;;;;77.10;35.27;;;6.00;99.90;;;;;;5027459;28;20221;-67
2021/10/10 01:28:40;;;;;;;78.47;36.33;;;5.90;99.90;;;;;;5024618;28;20602;-67
2021/10/10 01:31:09;;;;;;;74.77;35.97;;;5.90;99.90;;;;;;5025439;28;20201;-68
2021/10/10 01:33:38;;;;;;;69.70;35.37;;;5.90;99.90;;;;;;5028811;28;20185;-67
2021/10/10 01:36:11;;;;;;;75.37;35.80;;;6.00;99.90;;;;;;5022849;28;20258;-67
2021/10/10 01:38:47;;;;;;;75.00;35.80;;;6.00;99.90;;;;;;5024401;28;20201;-67
2021/10/10 01:41:16;;;;;;;67.70;34.03;;;6.00;99.90;;;;;;5028436;28;20660;-67
2021/10/10 01:43:44;;;;;;;73.60;34.97;;;5.90;99.90;;;;;;5025006;28;20241;-67
2021/10/10 01:46:13;;;;;;;72.17;34.43;;;5.90;99.90;;;;;;5025341;28;20633;-67
2021/10/10 01:48:42;;;;;;;66.80;34.00;;;5.90;99.90;;;;;;5030977;28;20608;-67
2021/10/10 01:51:12;;;;;;;65.57;32.97;;;5.80;99.90;;;;;;5023214;28;20198;-68
2021/10/10 01:53:41;;;;;;;73.53;34.50;;;5.80;99.90;;;;;;5030301;28;20236;-67
2021/10/10 01:56:11;;;;;;;74.83;34.80;;;5.80;99.90;;;;;;5023031;28;20214;-67
2021/10/10 01:58:39;;;;;;;73.77;34.10;;;5.80;99.90;;;;;;5027147;28;20296;-67
2021/10/10 02:01:08;;;;;;;73.63;35.43;;;5.80;99.90;;;;;;5024796;28;20433;-67
2021/10/10 02:03:36;;;;;;;70.17;34.73;;;5.80;99.90;;;;;;5017211;28;20198;-68
2021/10/10 02:06:05;;;;;;;71.37;34.10;;;5.80;99.90;;;;;;5023980;28;20186;-67
2021/10/10 02:08:33;;;;;;;82.13;36.97;;;5.80;99.90;;;;;;5017890;28;20197;-67
2021/10/10 02:11:02;;;;;;;78.30;34.57;;;5.80;99.90;;;;;;5028205;28;20186;-68
2021/10/10 02:13:32;;;;;;;84.03;35.90;;;5.80;99.90;;;;;;5019439;28;20574;-67
2021/10/10 02:16:03;;;;;;;97.87;39.57;;;5.80;99.90;;;;;;5023567;28;20304;-67
2021/10/10 02:18:32;;;;;;;217.87;47.07;;;5.80;99.90;;;;;;5016026;28;20283;-67
2021/10/10 02:21:00;;;;;;;146.50;47.13;;;5.80;99.90;;;;;;5026954;28;20228;-67
2021/10/10 02:23:28;;;;;;;132.97;47.47;;;5.90;99.90;;;;;;5025090;28;20228;-67
2021/10/10 02:25:57;;;;;;;119.83;44.83;;;5.90;99.90;;;;;;5021511;28;20277;-67
2021/10/10 02:28:25;;;;;;;113.97;43.03;;;5.90;99.90;;;;;;5026399;28;20227;-67
2021/10/10 02:30:55;;;;;;;160.77;47.97;;;5.90;99.90;;;;;;5028524;28;20193;-67
2021/10/10 02:33:24;;;;;;;243.33;51.27;;;6.00;99.90;;;;;;5015557;28;20202;-67
2021/10/10 02:35:52;;;;;;;186.27;48.13;;;6.00;99.90;;;;;;5017770;28;20217;-67
2021/10/10 02:38:20;;;;;;;134.03;47.40;;;6.00;99.90;;;;;;5020761;28;20446;-67
2021/10/10 02:40:49;;;;;;;116.37;46.00;;;6.00;99.90;;;;;;5024008;28;20193;-67
2021/10/10 02:43:17;;;;;;;210.53;49.53;;;6.00;99.90;;;;;;5018375;28;20206;-67
2021/10/10 02:45:45;;;;;;;176.33;49.30;;;6.00;99.90;;;;;;5023703;28;20194;-67
2021/10/10 02:48:16;;;;;;;175.73;48.57;;;6.00;99.90;;;;;;5024748;28;20227;-67
2021/10/10 02:50:44;;;;;;;151.27;45.03;;;6.00;99.90;;;;;;5019161;28;20197;-66
2021/10/10 02:53:13;;;;;;;170.90;45.17;;;6.00;99.90;;;;;;5018650;28;20661;-67
2021/10/10 02:55:41;;;;;;;161.40;46.50;;;6.10;99.90;;;;;;5023695;28;20252;-67
2021/10/10 02:58:09;;;;;;;164.47;46.83;;;6.10;99.90;;;;;;5020368;28;20289;-67
2021/10/10 03:00:38;;;;;;;186.23;50.27;;;6.10;99.90;;;;;;5022471;28;20255;-67
2021/10/10 03:03:07;;;;;;;193.60;47.13;;;6.10;99.90;;;;;;5026135;28;20220;-67
2021/10/10 03:05:37;;;;;;;201.37;47.83;;;6.10;99.90;;;;;;5026373;28;20251;-67
2021/10/10 03:08:08;;;;;;;138.53;44.83;;;6.10;99.90;;;;;;5022241;28;20668;-67
2021/10/10 03:10:37;;;;;;;165.47;47.43;;;6.10;99.90;;;;;;5027271;28;20217;-67
2021/10/10 03:13:06;;;;;;;168.13;47.20;;;6.10;99.90;;;;;;5028455;28;20198;-67
2021/10/10 03:15:36;;;;;;;210.93;48.50;;;6.10;99.90;;;;;;5023332;28;20439;-67
2021/10/10 03:18:05;;;;;;;128.63;44.40;;;6.10;99.90;;;;;;5026285;28;20301;-67
2021/10/10 03:20:34;;;;;;;282.77;49.70;;;6.10;99.90;;;;;;5024147;28;20290;-67
2021/10/10 03:23:04;;;;;;;288.93;50.33;;;6.10;99.90;;;;;;5025391;28;20194;-67
2021/10/10 03:25:33;;;;;;;166.07;46.87;;;6.10;99.90;;;;;;5034121;28;20288;-67
2021/10/10 03:28:01;;;;;;;142.27;44.53;;;6.10;99.90;;;;;;5021454;28;20534;-67
2021/10/10 03:30:32;;;;;;;262.17;47.90;;;6.20;99.90;;;;;;5033905;28;20193;-67
2021/10/10 03:33:00;;;;;;;180.37;46.07;;;6.20;99.90;;;;;;5026535;28;20597;-67
2021/10/10 03:35:30;;;;;;;118.87;44.20;;;6.20;99.90;;;;;;5034260;28;20201;-67
2021/10/10 03:37:59;;;;;;;295.87;47.43;;;6.20;99.90;;;;;;5028149;28;20240;-67
2021/10/10 03:40:29;;;;;;;132.40;43.70;;;6.20;99.90;;;;;;5020542;28;20276;-66
2021/10/10 03:42:57;;;;;;;146.43;44.00;;;6.20;99.90;;;;;;5021129;28;20198;-67
2021/10/10 03:45:26;;;;;;;131.97;44.03;;;6.20;99.90;;;;;;5030783;28;20193;-67
2021/10/10 03:47:57;;;;;;;147.23;43.27;;;6.20;99.90;;;;;;5023760;28;20328;-67
2021/10/10 03:50:25;;;;;;;101.27;44.40;;;6.20;99.90;;;;;;5031195;28;20454;-67
2021/10/10 03:52:54;;;;;;;154.00;45.63;;;6.20;99.90;;;;;;5022964;28;20232;-67
2021/10/10 03:55:32;;;;;;;162.33;45.87;;;6.30;99.90;;;;;;5029242;28;20241;-67
2021/10/10 03:58:02;;;;;;;158.13;47.87;;;6.30;99.90;;;;;;5028227;28;20248;-67
2021/10/10 04:00:32;;;;;;;145.63;46.77;;;6.30;99.90;;;;;;5027963;28;20189;-67
2021/10/10 04:03:03;;;;;;;154.30;49.10;;;6.30;99.90;;;;;;5034472;28;20212;-67
2021/10/10 04:05:42;;;;;;;121.10;47.53;;;6.30;99.90;;;;;;5021697;28;20194;-67
2021/10/10 04:08:10;;;;;;;96.13;44.60;;;6.30;99.90;;;;;;5020624;28;20240;-67
2021/10/10 04:10:38;;;;;;;131.67;46.43;;;6.20;99.90;;;;;;5030816;28;20228;-67
2021/10/10 04:13:08;;;;;;;133.73;47.23;;;6.20;99.90;;;;;;5028932;28;20277;-67
2021/10/10 04:15:39;;;;;;;112.87;46.50;;;6.20;99.90;;;;;;5029257;28;20277;-66
2021/10/10 04:18:09;;;;;;;115.33;45.83;;;6.20;99.90;;;;;;5028300;28;20206;-67
2021/10/10 04:20:37;;;;;;;120.83;46.43;;;6.20;99.90;;;;;;5026707;28;20243;-67
2021/10/10 04:23:05;;;;;;;131.27;48.43;;;6.20;99.90;;;;;;5032211;28;20764;-67
2021/10/10 04:25:35;;;;;;;112.87;46.47;;;6.20;99.90;;;;;;5025750;28;20236;-67
2021/10/10 04:28:04;;;;;;;149.67;46.67;;;6.10;99.90;;;;;;5022604;28;20190;-67
2021/10/10 04:30:34;;;;;;;116.53;44.07;;;6.10;99.90;;;;;;5034340;28;20594;-66
2021/10/10 04:33:02;;;;;;;111.83;43.43;;;6.10;99.90;;;;;;5027421;28;20205;-67
2021/10/10 04:35:33;;;;;;;95.63;42.87;;;6.10;99.90;;;;;;5026028;28;20723;-67
2021/10/10 04:38:01;;;;;;;123.40;42.07;;;6.10;99.90;;;;;;5023746;28;20214;-67
2021/10/10 04:40:30;;;;;;;115.63;42.27;;;6.10;99.90;;;;;;5030617;28;20201;-67
2021/10/10 04:43:01;;;;;;;134.97;43.33;;;6.10;99.90;;;;;;5030725;28;20285;-67
2021/10/10 04:45:30;;;;;;;153.83;45.47;;;6.10;99.90;;;;;;5026220;28;20190;-67
2021/10/10 04:48:00;;;;;;;170.93;48.47;;;6.10;99.90;;;;;;5027374;28;20209;-67
2021/10/10 04:50:30;;;;;;;141.13;47.20;;;6.20;99.90;;;;;;5026373;28;20232;-67
2021/10/10 04:52:58;;;;;;;186.90;49.13;;;6.10;99.90;;;;;;5024059;28;20251;-67
2021/10/10 04:55:27;;;;;;;112.30;45.67;;;6.10;99.90;;;;;;5025906;28;20194;-67
2021/10/10 04:57:55;;;;;;;89.43;45.17;;;6.10;99.90;;;;;;5025866;28;20213;-67
2021/10/10 05:00:23;;;;;;;140.50;46.93;;;6.10;99.90;;;;;;5024754;28;20189;-67
2021/10/10 05:02:53;;;;;;;128.37;49.23;;;6.20;99.90;;;;;;5025103;28;20205;-66
2021/10/10 05:05:26;;;;;;;122.87;47.60;;;6.20;99.90;;;;;;5023129;28;20228;-67
2021/10/10 05:07:54;;;;;;;117.83;47.13;;;6.20;99.90;;;;;;5026251;28;20221;-67
2021/10/10 05:10:23;;;;;;;169.20;50.77;;;6.20;99.90;;;;;;5024903;28;20221;-67
2021/10/10 05:12:51;;;;;;;145.07;50.20;;;6.20;99.90;;;;;;5025085;28;20254;-66
2021/10/10 05:15:20;;;;;;;122.23;49.43;;;6.20;99.90;;;;;;5021950;28;20197;-67
2021/10/10 05:17:48;;;;;;;154.67;50.63;;;6.20;99.90;;;;;;5028154;28;20217;-67
2021/10/10 05:20:16;;;;;;;108.93;48.07;;;6.30;99.90;;;;;;5030863;28;20566;-67
2021/10/10 05:22:46;;;;;;;104.73;47.53;;;6.30;99.90;;;;;;5021240;28;20573;-67
2021/10/10 05:25:15;;;;;;;139.93;49.67;;;6.30;99.90;;;;;;5019674;28;20233;-67
2021/10/10 05:27:44;;;;;;;184.10;53.30;;;6.30;99.90;;;;;;5026433;28;20283;-67
2021/10/10 05:30:13;;;;;;;187.87;53.47;;;6.40;99.90;;;;;;5031316;28;20197;-67
2021/10/10 05:32:41;;;;;;;165.53;53.50;;;6.40;99.90;;;;;;5026016;28;20206;-67
2021/10/10 05:35:10;;;;;;;130.93;52.07;;;6.40;99.90;;;;;;5021317;28;20367;-67
2021/10/10 05:37:39;;;;;;;128.03;51.37;;;6.40;99.90;;;;;;5026778;28;20197;-67
2021/10/10 05:40:10;;;;;;;133.13;50.47;;;6.50;99.90;;;;;;5022976;28;20489;-67
2021/10/10 05:42:39;;;;;;;138.03;50.47;;;6.50;99.90;;;;;;5026327;28;20292;-67
2021/10/10 05:45:08;;;;;;;113.03;49.53;;;6.50;99.90;;;;;;5026567;28;20216;-67
2021/10/10 05:47:37;;;;;;;125.17;49.10;;;6.60;99.90;;;;;;5025094;28;20221;-67
2021/10/10 05:50:07;;;;;;;168.70;51.00;;;6.60;99.90;;;;;;5018132;28;20193;-67
2021/10/10 05:52:35;;;;;;;113.70;50.20;;;6.60;99.90;;;;;;5023747;28;20608;-67
2021/10/10 05:55:08;;;;;;;156.27;53.60;;;6.50;99.90;;;;;;5023608;28;20583;-67
2021/10/10 05:57:44;;;;;;;157.43;53.43;;;6.60;99.90;;;;;;5033953;28;20189;-67
2021/10/10 06:00:17;;;;;;;139.57;52.43;;;6.60;99.90;;;;;;5025407;28;20856;-67
2021/10/10 06:02:46;;;;;;;160.60;53.13;;;6.60;99.90;;;;;;5024597;28;20248;-67
2021/10/10 06:05:16;;;;;;;195.80;55.53;;;6.70;99.90;;;;;;5021206;28;20203;-67
2021/10/10 06:07:44;;;;;;;294.83;60.40;;;6.70;99.90;;;;;;5030801;28;20197;-67
2021/10/10 06:10:13;;;;;;;194.00;54.47;;;6.70;99.90;;;;;;5022507;28;20197;-67
2021/10/10 06:12:43;;;;;;;258.00;61.23;;;6.80;99.90;;;;;;5023737;28;20193;-67
2021/10/10 06:15:12;;;;;;;186.90;60.03;;;6.80;99.90;;;;;;5019611;28;20715;-67
2021/10/10 06:17:40;;;;;;;190.93;58.97;;;6.80;99.90;;;;;;5028889;28;20201;-67
2021/10/10 06:20:09;;;;;;;258.83;61.27;;;6.80;99.90;;;;;;5029343;28;20218;-67
2021/10/10 06:22:38;;;;;;;219.63;57.00;;;6.80;99.90;;;;;;5024998;28;20735;-67
2021/10/10 06:25:07;;;;;;;142.77;54.33;;;6.80;99.90;;;;;;5022773;28;20204;-67
2021/10/10 06:27:36;;;;;;;154.43;56.23;;;6.90;99.90;;;;;;5027306;28;20316;-67
2021/10/10 06:30:07;;;;;;;222.27;60.37;;;6.90;99.90;;;;;;5024138;28;20631;-67
2021/10/10 06:32:36;;;;;;;237.33;60.33;;;6.90;99.90;;;;;;5024153;28;20200;-67
2021/10/10 06:35:05;;;;;;;160.90;55.43;;;7.00;99.90;;;;;;5020745;28;20252;-67
2021/10/10 06:37:33;;;;;;;204.23;59.80;;;7.10;99.90;;;;;;5026689;28;20943;-67
2021/10/10 06:40:03;;;;;;;151.53;55.80;;;7.10;99.90;;;;;;5018765;28;20206;-67
2021/10/10 06:42:31;;;;;;;165.03;56.47;;;7.10;99.90;;;;;;5023799;28;20292;-67
2021/10/10 06:45:00;;;;;;;221.07;63.63;;;7.10;99.90;;;;;;5018802;28;20226;-67
2021/10/10 06:47:30;;;;;;;206.20;64.80;;;7.10;99.90;;;;;;5022622;28;20711;-67
2021/10/10 06:50:02;;;;;;;232.80;62.83;;;7.10;99.90;;;;;;5021645;28;20198;-67
2021/10/10 06:52:31;;;;;;;229.90;60.47;;;7.10;99.90;;;;;;5025898;28;20252;-67
2021/10/10 06:54:59;;;;;;;122.67;54.67;;;7.20;99.90;;;;;;5031312;28;20245;-67
2021/10/10 06:57:29;;;;;;;163.63;58.63;;;7.30;99.90;;;;;;5027505;28;20281;-67
2021/10/10 07:00:00;;;;;;;140.83;59.83;;;7.30;99.90;;;;;;5032622;28;20411;-67
2021/10/10 07:02:30;;;;;;;239.53;64.43;;;7.40;99.90;;;;;;5027578;28;20259;-67
2021/10/10 07:04:59;;;;;;;203.47;58.93;;;7.40;99.90;;;;;;5027647;28;20209;-67
2021/10/10 07:07:27;;;;;;;161.67;57.30;;;7.40;99.90;;;;;;5026410;28;20186;-67
2021/10/10 07:09:55;;;;;;;192.93;60.37;;;7.50;99.90;;;;;;5023579;28;20243;-67
2021/10/10 07:12:24;;;;;;;137.00;53.43;;;7.50;99.90;;;;;;5043538;28;20671;-67
2021/10/10 07:14:52;;;;;;;117.87;50.63;;;7.60;99.90;;;;;;5033678;28;20251;-67
2021/10/10 07:17:25;;;;;;;105.93;50.17;;;7.60;99.90;;;;;;5024788;28;20197;-67
2021/10/10 07:19:59;;;;;;;133.57;50.97;;;7.80;99.90;;;;;;5026066;28;20535;-66
2021/10/10 07:22:30;;;;;;;153.67;49.03;;;7.70;99.90;;;;;;5027996;28;20538;-67
2021/10/10 07:25:05;;;;;;;132.50;55.83;;;7.70;99.90;;;;;;5022573;28;20451;-67
2021/10/10 07:27:34;;;;;;;115.83;49.87;;;7.70;99.90;;;;;;5028419;28;20226;-67
2021/10/10 07:30:04;;;;;;;117.37;47.73;;;7.70;99.90;;;;;;5024258;28;20228;-67
2021/10/10 07:32:36;;;;;;;151.83;49.10;;;7.70;99.90;;;;;;5022190;28;20240;-67
2021/10/10 07:35:10;;;;;;;185.83;87.97;;;7.80;99.90;;;;;;5027719;28;20305;-67
2021/10/10 07:37:38;;;;;;;97.80;47.80;;;7.90;99.90;;;;;;5024652;28;20197;-68
2021/10/10 07:40:08;;;;;;;100.87;46.30;;;8.00;99.90;;;;;;5023156;28;20205;-67
2021/10/10 07:42:36;;;;;;;162.53;48.17;;;8.00;99.90;;;;;;5022259;28;20214;-67
2021/10/10 07:45:07;;;;;;;121.37;47.73;;;8.10;99.90;;;;;;5030335;28;20193;-67
2021/10/10 07:47:47;;;;;;;127.23;48.93;;;8.00;99.90;;;;;;5022956;28;20596;-67
2021/10/10 07:50:21;;;;;;;97.57;50.67;;;8.10;99.90;;;;;;5020946;28;20185;-67
2021/10/10 07:52:50;;;;;;;106.73;42.97;;;8.10;99.90;;;;;;5027002;28;20672;-67
2021/10/10 07:55:21;;;;;;;105.20;45.40;;;8.20;99.90;;;;;;5021162;28;20197;-67
2021/10/10 07:57:50;;;;;;;114.73;44.60;;;8.30;99.90;;;;;;5023829;28;20731;-67
2021/10/10 08:00:18;;;;;;;150.90;47.10;;;8.40;99.90;;;;;;5022964;28;20209;-67
2021/10/10 08:02:54;;;;;;;164.97;53.03;;;8.50;99.90;;;;;;5026115;28;20236;-67
2021/10/10 08:05:26;;;;;;;137.50;47.00;;;8.50;99.90;;;;;;5024731;28;20247;-67
2021/10/10 08:07:55;;;;;;;153.03;44.77;;;8.60;99.90;;;;;;5019466;28;20201;-67
2021/10/10 08:10:25;;;;;;;81.37;40.33;;;8.60;99.90;;;;;;5024075;28;20197;-67
2021/10/10 08:12:53;;;;;;;89.43;39.23;;;8.70;99.90;;;;;;5022891;28;20263;-67
2021/10/10 08:15:22;;;;;;;83.10;40.63;;;8.80;99.90;;;;;;5027150;28;20190;-67
2021/10/10 08:17:50;;;;;;;98.00;40.47;;;8.90;99.90;;;;;;5033400;28;20204;-67
2021/10/10 08:20:19;;;;;;;129.23;43.47;;;9.00;99.90;;;;;;5020152;28;20262;-68
2021/10/10 08:22:51;;;;;;;109.60;41.90;;;9.10;99.90;;;;;;5028304;28;20280;-67
2021/10/10 08:25:19;;;;;;;97.60;41.57;;;9.20;99.90;;;;;;5022379;28;20632;-67
2021/10/10 08:27:48;;;;;;;113.67;40.20;;;9.30;99.90;;;;;;5029557;28;20766;-68
2021/10/10 08:30:18;;;;;;;89.53;38.87;;;9.40;99.90;;;;;;5023667;28;20691;-68
2021/10/10 08:32:49;;;;;;;77.47;38.90;;;9.70;99.90;;;;;;5027454;28;20302;-68
2021/10/10 08:35:17;;;;;;;69.93;39.30;;;9.70;99.90;;;;;;5027177;28;20228;-68
2021/10/10 08:37:46;;;;;;;84.53;44.47;;;10.00;99.90;;;;;;5024269;28;20198;-68
2021/10/10 08:40:17;;;;;;;67.67;41.47;;;10.20;99.90;;;;;;5023642;28;20214;-68
2021/10/10 08:42:47;;;;;;;67.50;37.20;;;10.40;99.90;;;;;;5025301;28;20197;-67
2021/10/10 08:45:18;;;;;;;62.43;35.77;;;10.60;99.90;;;;;;5023563;28;20197;-67
2021/10/10 08:47:47;;;;;;;58.27;36.13;;;10.60;99.90;;;;;;5024414;28;20279;-67
2021/10/10 08:50:17;;;;;;;70.03;38.53;;;10.60;99.90;;;;;;5020146;28;20715;-67
2021/10/10 08:52:47;;;;;;;66.00;37.27;;;10.60;99.90;;;;;;5025921;28;20225;-67
2021/10/10 08:55:17;;;;;;;60.20;36.87;;;10.50;99.90;;;;;;5024675;28;20201;-67
2021/10/10 08:57:46;;;;;;;71.77;39.30;;;10.50;99.90;;;;;;5028310;28;20726;-67
2021/10/10 09:00:17;;;;;;;73.87;41.07;;;10.50;99.90;;;;;;5023796;28;20236;-67
2021/10/10 09:02:48;;;;;;;68.73;37.80;;;10.60;99.90;;;;;;5024184;28;20194;-67
2021/10/10 09:05:18;;;;;;;74.63;41.43;;;10.60;99.90;;;;;;5024671;28;20189;-67
2021/10/10 09:07:48;;;;;;;70.83;41.03;;;10.60;99.90;;;;;;5021522;28;20267;-67
2021/10/10 09:10:20;;;;;;;73.90;39.77;;;10.80;99.90;;;;;;5019821;28;20182;-67
2021/10/10 09:12:49;;;;;;;64.30;39.20;;;11.00;99.90;;;;;;5021070;28;20193;-67
2021/10/10 09:15:19;;;;;;;67.67;38.37;;;11.20;99.90;;;;;;5023934;28;20248;-67
2021/10/10 09:17:55;;;;;;;73.07;38.77;;;11.60;99.90;;;;;;5031048;28;20197;-67
2021/10/10 09:20:32;;;;;;;63.33;37.43;;;11.80;99.90;;;;;;5022631;28;20213;-67
2021/10/10 09:23:02;;;;;;;60.87;36.23;;;11.90;99.90;;;;;;5033036;28;20271;-67
2021/10/10 09:25:33;;;;;;;59.53;34.67;;;12.00;99.90;;;;;;5035189;28;20231;-67
2021/10/10 09:28:19;;;;;;;62.37;36.53;;;12.20;99.90;;;;;;5024955;28;20205;-67
2021/10/10 09:30:52;;;;;;;60.00;35.87;;;12.20;99.90;;;;;;5026902;28;20238;-67
2021/10/10 09:33:35;;;;;;;67.57;37.67;;;12.30;99.90;;;;;;5024637;28;20236;-67
2021/10/10 09:36:06;;;;;;;64.43;36.83;;;12.40;99.90;;;;;;5025684;28;20689;-67
2021/10/10 09:38:42;;;;;;;63.53;39.10;;;12.40;99.90;;;;;;5022483;28;20202;-67
2021/10/10 09:41:19;;;;;;;56.80;36.33;;;12.50;99.90;;;;;;5025531;28;20250;-67
2021/10/10 09:44:02;;;;;;;62.43;36.87;;;12.60;99.90;;;;;;5023442;28;20200;-68
2021/10/10 09:46:31;;;;;;;64.37;37.97;;;12.60;99.90;;;;;;5022389;28;20264;-67
2021/10/10 09:49:00;;;;;;;59.37;35.50;;;12.60;99.90;;;;;;5008295;28;20193;-67
2021/10/10 09:51:34;;;;;;;61.47;37.43;;;12.60;99.90;;;;;;5027489;28;20192;-67
2021/10/10 09:54:04;;;;;;;60.93;37.23;;;12.50;99.90;;;;;;5024539;28;20248;-67
2021/10/10 09:56:34;;;;;;;66.83;39.90;;;12.60;99.90;;;;;;5023476;28;20221;-67
2021/10/10 09:59:03;;;;;;;69.17;40.57;;;12.60;99.90;;;;;;5022401;28;20537;-66
2021/10/10 10:01:38;;;;;;;64.57;39.90;;;12.50;99.90;;;;;;5017726;28;20305;-67
2021/10/10 10:04:09;;;;;;;66.30;38.77;;;12.60;99.90;;;;;;5019410;28;20205;-67
2021/10/10 10:06:39;;;;;;;64.23;38.03;;;13.10;99.90;;;;;;5023539;28;20185;-67
2021/10/10 10:09:10;;;;;;;64.10;40.20;;;13.40;99.90;;;;;;5025725;28;20189;-67
2021/10/10 10:11:42;;;;;;;63.83;37.57;;;13.80;99.90;;;;;;5017639;28;20247;-67
2021/10/10 10:14:12;;;;;;;58.50;37.83;;;14.00;99.90;;;;;;5018768;28;20194;-67
2021/10/10 10:16:43;;;;;;;64.10;35.90;;;14.20;99.90;;;;;;5024230;28;20189;-67
2021/10/10 10:19:16;;;;;;;59.53;36.30;;;14.30;99.90;;;;;;5022229;28;20196;-67
2021/10/10 10:21:47;;;;;;;62.77;36.90;;;14.40;99.90;;;;;;5021166;28;20206;-67
2021/10/10 10:24:19;;;;;;;58.50;35.87;;;14.60;99.90;;;;;;5022934;28;20202;-67
2021/10/10 10:26:49;;;;;;;56.87;36.97;;;14.80;99.90;;;;;;5026851;28;20220;-67
2021/10/10 10:29:25;;;;;;;53.30;33.90;;;15.10;99.90;;;;;;5023664;28;20197;-67
2021/10/10 10:31:55;;;;;;;50.57;33.30;;;15.40;99.90;;;;;;5017071;28;20272;-68
2021/10/10 10:34:25;;;;;;;55.33;34.23;;;15.50;99.90;;;;;;5021667;28;20932;-68
2021/10/10 10:37:00;;;;;;;49.67;34.13;;;15.70;99.90;;;;;;5023845;28;20202;-67
2021/10/10 10:39:44;;;;;;;47.77;32.03;;;15.80;99.90;;;;;;5023663;28;20224;-67
2021/10/10 10:42:41;;;;;;;50.03;31.70;;;16.10;99.90;;;;;;5020341;28;20209;-67
2021/10/10 10:45:20;;;;;;;49.33;33.13;;;16.40;99.90;;;;;;5018423;28;20676;-67
2021/10/10 10:47:49;;;;;;;53.23;33.67;;;16.60;99.90;;;;;;5019986;28;20216;-68
2021/10/10 10:50:21;;;;;;;49.23;31.97;;;16.60;99.90;;;;;;5033071;28;20193;-68
2021/10/10 10:52:58;;;;;;;53.77;32.63;;;16.90;99.90;;;;;;5022340;28;20226;-67
2021/10/10 10:55:28;;;;;;;43.90;30.90;;;17.10;99.90;;;;;;5025864;28;20406;-67
2021/10/10 10:58:00;;;;;;;47.77;30.70;;;17.50;99.90;;;;;;5020305;28;20662;-68
2021/10/10 11:00:31;;;;;;;50.07;31.47;;;17.70;99.90;;;;;;5022785;28;20357;-67
2021/10/10 11:03:03;;;;;;;47.40;33.00;;;17.90;99.90;;;;;;5023775;28;20196;-67
2021/10/10 11:05:37;;;;;;;50.43;32.33;;;17.80;99.90;;;;;;5019048;28;20671;-67
2021/10/10 11:08:08;;;;;;;47.83;30.47;;;17.80;99.90;;;;;;5023054;28;20200;-67
2021/10/10 11:10:38;;;;;;;49.73;31.87;;;18.20;99.90;;;;;;5021751;28;20227;-67
2021/10/10 11:13:26;;;;;;;48.07;30.90;;;18.50;99.90;;;;;;5023530;28;20694;-68
2021/10/10 11:15:57;;;;;;;44.73;29.63;;;18.70;99.90;;;;;;5020243;28;20201;-67
2021/10/10 11:18:28;;;;;;;51.73;30.73;;;18.80;99.90;;;;;;5020214;28;20194;-67
2021/10/10 11:21:00;;;;;;;44.40;30.33;;;18.90;99.90;;;;;;5019360;28;20207;-67
2021/10/10 11:23:29;;;;;;;48.20;32.13;;;19.20;99.90;;;;;;5025555;28;20607;-67
2021/10/10 11:26:01;;;;;;;50.60;32.83;;;19.30;99.90;;;;;;5029257;28;20199;-67
2021/10/10 11:28:40;;;;;;;51.50;32.17;;;19.30;99.90;;;;;;5022177;28;20329;-68
2021/10/10 11:31:10;;;;;;;52.40;33.40;;;19.10;99.90;;;;;;5007413;28;20203;-67
2021/10/10 11:33:41;;;;;;;56.33;34.60;;;19.20;99.90;;;;;;5025930;28;20668;-67
2021/10/10 11:36:10;;;;;;;56.57;32.80;;;19.30;99.90;;;;;;5025705;28;20204;-67
2021/10/10 11:38:51;;;;;;;52.00;33.07;;;19.40;99.90;;;;;;5019719;28;20580;-67
2021/10/10 11:41:20;;;;;;;52.20;33.83;;;19.80;99.90;;;;;;5021373;28;20307;-67
2021/10/10 11:43:58;;;;;;;49.00;33.10;;;19.80;99.90;;;;;;5022805;28;20192;-67
2021/10/10 11:46:38;;;;;;;60.20;36.40;;;19.80;99.90;;;;;;5025038;28;20230;-68
2021/10/10 11:49:28;;;;;;;57.73;36.20;;;19.70;99.90;;;;;;5030091;28;20196;-67
2021/10/10 11:52:15;;;;;;;60.47;36.53;;;19.70;99.90;;;;;;5025918;28;20191;-67
2021/10/10 11:54:45;;;;;;;56.40;36.17;;;19.80;99.90;;;;;;5024993;28;20201;-67
2021/10/10 11:57:15;;;;;;;60.50;37.53;;;19.80;99.90;;;;;;5023739;28;20622;-67
2021/10/10 11:59:52;;;;;;;61.97;36.50;;;19.80;99.90;;;;;;5020521;28;20673;-67
2021/10/10 12:02:51;;;;;;;55.20;33.70;;;19.80;99.90;;;;;;5025876;28;20245;-67
2021/10/10 12:05:21;;;;;;;54.03;34.23;;;20.10;99.90;;;;;;5025158;28;20253;-67
2021/10/10 12:07:52;;;;;;;54.90;36.50;;;20.20;99.90;;;;;;5026229;28;20202;-67
2021/10/10 12:10:22;;;;;;;57.30;35.73;;;20.10;99.90;;;;;;5045049;28;20196;-67
2021/10/10 12:12:53;;;;;;;49.30;31.47;;;20.00;99.90;;;;;;5023666;28;20186;-67
2021/10/10 12:15:24;;;;;;;49.70;30.90;;;20.00;99.90;;;;;;5020545;28;20724;-67
2021/10/10 12:17:57;;;;;;;58.10;34.80;;;20.20;99.90;;;;;;5026182;28;20205;-67
2021/10/10 12:20:28;;;;;;;53.40;33.00;;;20.10;99.90;;;;;;5028853;28;20648;-67
2021/10/10 12:22:59;;;;;;;49.70;31.70;;;20.10;99.90;;;;;;5021837;28;20224;-67
2021/10/10 12:25:31;;;;;;;53.83;33.37;;;19.90;99.90;;;;;;5023344;28;20191;-67
2021/10/10 12:28:04;;;;;;;54.90;33.90;;;20.00;99.90;;;;;;5022745;28;20191;-67
2021/10/10 12:30:37;;;;;;;55.70;34.60;;;20.00;99.90;;;;;;5025329;28;20205;-68
2021/10/10 12:33:24;;;;;;;52.73;33.50;;;19.80;99.90;;;;;;5028065;28;20181;-67
2021/10/10 12:35:58;;;;;;;59.93;35.70;;;19.70;99.90;;;;;;5026278;28;20230;-68
2021/10/10 12:38:35;;;;;;;49.53;31.87;;;19.90;99.90;;;;;;5020493;28;20971;-67
2021/10/10 12:41:27;;;;;;;47.70;30.47;;;19.80;99.90;;;;;;5027240;28;20406;-67
2021/10/10 12:43:58;;;;;;;46.57;30.13;;;20.20;99.90;;;;;;5023448;28;20679;-68
2021/10/10 12:46:28;;;;;;;54.70;34.33;;;20.00;99.90;;;;;;5034788;28;20225;-70